CYRQ

Trois-Rivieres Airport

Trois-Rivieres, , Canada
TAF CYRQ 201338Z 2014/2102 35010G20KT P6SM OVC080 TEMPO 2014/2102 5SM -SHSNRA BR BECMG 2100/2102 31008KT RMK FCST BASED ON AUTO OBS. NXT FCST BY 202000Z
Issued Valid From Valid To
Apr-20 @ 13:38 UTC
(5 hours ago)
Apr-20 @ 14:00 UTC
(5 hours ago)
Apr-21 @ 02:00 UTC
(in 7 hours)
Apr-20 @ 14:00 to Apr-21 @ 00:00
TAF CYRQ 201338Z 2014/2102 35010G20KT P6SM OVC080
Wind Visibility Clouds
350° at 10 knots
 Gusting to 20 knots
Greater than 6 miles
  • Overcast at 8,000' AGL
Temporary Apr-20 @ 14:00 to Apr-21 @ 02:00
TEMPO 2014/2102 5SM -SHSNRA BR
Visibility Conditions
5 miles
  • Light Snow
  • Light Rain
  • Mist
Becoming Apr-21 @ 00:00 to Apr-21 @ 02:00
BECMG 2100/2102 31008KT RMK FCST BASED ON AUTO OBS. NXT FCST BY 202000Z
Wind Visibility Clouds
310° at 8 knots Greater than 6 miles
  • Overcast at 8,000' AGL
TAF CYRQ 201338Z 2014/2102 35010G20KT P6SM OVC080 TEMPO 2014/2102 5SM -SHSNRA BR BECMG 2100/2102 31008KT RMK FCST BASED ON AUTO OBS. NXT FCST BY 202000Z
Issued Apr-20 @ 13:38 UTC
(5 hours ago)
Valid From Apr-20 @ 14:00 UTC
(5 hours ago)
Valid To Apr-21 @ 02:00 UTC
(in 7 hours)
Apr-20 @ 14:00 - Apr-21 @ 00:00
Wind Visibility
350° at 10 knots
 Gusting to 20 knots
Greater than 6 miles
Clouds
  • Overcast at 8,000' AGL
Temporary Apr-20 @ 14:00 - Apr-21 @ 02:00
Conditions
  • Light Snow
  • Light Rain
  • Mist
Becoming Apr-21 @ 00:00 - Apr-21 @ 02:00
Wind Visibility
310° at 8 knots Greater than 6 miles
Clouds
  • Overcast at 8,000' AGL